Anchorage, AK

8:21 PM AKDT on August 26, 2016 (GMT -0800)
Tributary Cir | | Change Station

Elev 188 ft 61.11 °N, 149.84 °W | Updated 12 seconds ago

Clear
Clear
62.6 °F
Feels Like 62.6 °F
N
0.0
Wind Variable Wind from NE
Gusts 0.0 mph

Today
High -- | Low -- °F
--% Chance of Precip.
Yesterday
High -- | Low -- °F
Precip. -- in
Pressure 30.10 in
Visibility 10.0 miles
Clouds Clear
Dew Point 56 °F
Humidity 79%
Rainfall 0.02 in
Snow Depth Not available.
6:38 AM 9:22 PM
Waning Crescent, 28% visible
METAR PALH 270353Z 32004KT 10SM CLR 17/13 A3010 RMK AO2 SLP193 T01670128
Pressure 30.10 in
Visibility 10.0 miles
Clouds Clear
Dew Point 56 °F
Humidity 79%
Rainfall 0.02 in
Snow Depth Not available.
6:38 AM 9:22 PM
Waning Crescent, 28% visible
METAR PALH 270353Z 32004KT 10SM CLR 17/13 A3010 RMK AO2 SLP193 T01670128

10-Day Weather Forecast

Almanac

Astronomy

Aug. 26, 2016 Rise Set
Actual Time
Civil Twilight
Nautical Twilight
Astronomical Twilight
Moon
Length of Visible Light
Length of Day
Tomorrow will be .
, % of the Moon is Illuminated

Today's Extremes

State Highs State Lows

Community

WunderPhotos

Upload Photos

1,935,299 photos uploaded!

WunderBlog® & News

Nearby

Air Quality

  Air Quality AQ Index Pollutant
Not available.

Snow Depth

Station Depth Elevation

Earthquake Activity

City Distance Mag. Time & Date
Minimum magnitude displayed is 2.5.

Coastal Water Temperatures

Place Temperature

Stations

Nearby Weather Stations

Station Location Temp. Windchill Dew Point Humidity Wind Precip. Elev Updated Type
                   

Watches & Warnings

There are currently no watches in effect.